sensor_id;sensor_type;location;lat;lon;timestamp;pressure;altitude;pressure_sealevel;temperature;humidity
39739;BME280;25422;48.286;8.484;2023-09-19T00:00:20;93927.81;;;12.75;100.00
39739;BME280;25422;48.286;8.484;2023-09-19T00:02:51;93931.25;;;12.76;100.00
39739;BME280;25422;48.286;8.484;2023-09-19T00:05:17;93929.81;;;12.73;100.00
39739;BME280;25422;48.286;8.484;2023-09-19T00:07:42;93927.63;;;12.77;100.00
39739;BME280;25422;48.286;8.484;2023-09-19T00:10:08;93927.81;;;12.75;100.00
39739;BME280;25422;48.286;8.484;2023-09-19T00:12:35;93929.19;;;12.71;100.00
39739;BME280;25422;48.286;8.484;2023-09-19T00:15:00;93934.66;;;12.70;100.00
39739;BME280;25422;48.286;8.484;2023-09-19T00:17:27;93934.66;;;12.70;100.00
39739;BME280;25422;48.286;8.484;2023-09-19T00:19:55;93939.69;;;12.71;100.00
39739;BME280;25422;48.286;8.484;2023-09-19T00:22:21;93937.94;;;12.78;100.00
39739;BME280;25422;48.286;8.484;2023-09-19T00:24:46;93943.63;;;12.82;100.00
39739;BME280;25422;48.286;8.484;2023-09-19T00:27:11;93940.03;;;12.90;100.00
39739;BME280;25422;48.286;8.484;2023-09-19T00:29:37;93926.91;;;12.90;100.00
39739;BME280;25422;48.286;8.484;2023-09-19T00:32:03;93939.50;;;12.94;100.00
39739;BME280;25422;48.286;8.484;2023-09-19T00:34:30;93939.91;;;12.98;100.00
39739;BME280;25422;48.286;8.484;2023-09-19T00:36:59;93935.09;;;13.02;100.00
39739;BME280;25422;48.286;8.484;2023-09-19T00:39:24;93932.66;;;13.00;100.00
39739;BME280;25422;48.286;8.484;2023-09-19T00:41:51;93936.13;;;13.07;100.00
39739;BME280;25422;48.286;8.484;2023-09-19T00:44:16;93934.00;;;13.18;100.00
39739;BME280;25422;48.286;8.484;2023-09-19T00:46:43;93932.19;;;13.18;100.00
39739;BME280;25422;48.286;8.484;2023-09-19T00:49:09;93928.34;;;13.21;100.00
39739;BME280;25422;48.286;8.484;2023-09-19T00:51:35;93932.03;;;13.26;100.00
39739;BME280;25422;48.286;8.484;2023-09-19T00:54:02;93937.47;;;13.25;100.00
39739;BME280;25422;48.286;8.484;2023-09-19T00:56:29;93937.47;;;13.25;100.00
39739;BME280;25422;48.286;8.484;2023-09-19T00:58:54;93937.88;;;13.22;100.00
39739;BME280;25422;48.286;8.484;2023-09-19T01:01:20;93945.34;;;13.25;100.00
39739;BME280;25422;48.286;8.484;2023-09-19T01:03:46;93936.47;;;13.26;100.00
39739;BME280;25422;48.286;8.484;2023-09-19T01:06:12;93936.91;;;13.29;100.00
39739;BME280;25422;48.286;8.484;2023-09-19T01:08:38;93937.53;;;13.31;100.00
39739;BME280;25422;48.286;8.484;2023-09-19T01:11:15;93951.47;;;13.32;100.00
39739;BME280;25422;48.286;8.484;2023-09-19T01:17:24;93943.72;;;13.24;100.00
39739;BME280;25422;48.286;8.484;2023-09-19T01:20:19;93947.75;;;13.20;100.00
39739;BME280;25422;48.286;8.484;2023-09-19T01:23:03;93950.16;;;13.14;100.00
39739;BME280;25422;48.286;8.484;2023-09-19T01:26:04;93957.41;;;13.12;100.00
39739;BME280;25422;48.286;8.484;2023-09-19T01:28:50;93956.59;;;13.12;100.00
39739;BME280;25422;48.286;8.484;2023-09-19T01:31:21;93961.25;;;13.16;100.00
39739;BME280;25422;48.286;8.484;2023-09-19T01:33:59;93954.78;;;13.12;100.00
39739;BME280;25422;48.286;8.484;2023-09-19T01:36:29;93952.28;;;13.04;100.00
39739;BME280;25422;48.286;8.484;2023-09-19T01:38:57;93965.81;;;13.01;100.00
39739;BME280;25422;48.286;8.484;2023-09-19T01:41:38;93967.13;;;12.90;100.00
39739;BME280;25422;48.286;8.484;2023-09-19T01:44:09;93964.31;;;12.92;100.00
39739;BME280;25422;48.286;8.484;2023-09-19T01:46:41;93962.94;;;12.96;100.00
39739;BME280;25422;48.286;8.484;2023-09-19T01:49:24;93970.63;;;12.97;100.00
39739;BME280;25422;48.286;8.484;2023-09-19T01:54:27;93964.41;;;13.05;100.00
39739;BME280;25422;48.286;8.484;2023-09-19T01:59:50;93972.16;;;13.13;100.00
39739;BME280;25422;48.286;8.484;2023-09-19T02:02:17;93968.53;;;13.14;100.00
39739;BME280;25422;48.286;8.484;2023-09-19T02:04:48;93967.97;;;13.19;100.00
39739;BME280;25422;48.286;8.484;2023-09-19T02:07:14;93965.56;;;13.24;100.00
39739;BME280;25422;48.286;8.484;2023-09-19T02:09:40;93957.69;;;13.24;100.00
39739;BME280;25422;48.286;8.484;2023-09-19T02:12:09;93958.31;;;13.26;100.00
39739;BME280;25422;48.286;8.484;2023-09-19T02:14:34;93962.38;;;13.29;100.00
39739;BME280;25422;48.286;8.484;2023-09-19T02:17:02;93962.16;;;13.30;100.00
39739;BME280;25422;48.286;8.484;2023-09-19T02:19:32;93971.88;;;13.30;100.00
39739;BME280;25422;48.286;8.484;2023-09-19T02:21:59;93978.22;;;13.36;100.00
39739;BME280;25422;48.286;8.484;2023-09-19T02:24:25;93972.13;;;13.35;100.00
39739;BME280;25422;48.286;8.484;2023-09-19T02:26:52;93966.88;;;13.35;100.00
39739;BME280;25422;48.286;8.484;2023-09-19T02:29:17;93966.88;;;13.35;100.00
39739;BME280;25422;48.286;8.484;2023-09-19T02:31:43;93978.38;;;13.34;100.00
39739;BME280;25422;48.286;8.484;2023-09-19T02:34:08;93974.31;;;13.31;100.00
39739;BME280;25422;48.286;8.484;2023-09-19T02:36:34;93970.44;;;13.27;100.00
39739;BME280;25422;48.286;8.484;2023-09-19T02:38:59;93978.47;;;13.19;100.00
39739;BME280;25422;48.286;8.484;2023-09-19T02:41:25;93974.00;;;13.20;100.00
39739;BME280;25422;48.286;8.484;2023-09-19T02:43:50;93970.16;;;13.15;100.00
39739;BME280;25422;48.286;8.484;2023-09-19T02:46:15;93969.78;;;13.19;100.00
39739;BME280;25422;48.286;8.484;2023-09-19T02:48:42;93972.56;;;13.17;100.00
39739;BME280;25422;48.286;8.484;2023-09-19T02:51:07;93965.72;;;13.16;100.00
39739;BME280;25422;48.286;8.484;2023-09-19T02:53:32;93978.84;;;13.16;100.00
39739;BME280;25422;48.286;8.484;2023-09-19T02:55:58;93978.59;;;13.11;100.00
39739;BME280;25422;48.286;8.484;2023-09-19T02:58:24;93978.59;;;13.11;100.00
39739;BME280;25422;48.286;8.484;2023-09-19T03:00:50;93979.41;;;13.11;100.00
39739;BME280;25422;48.286;8.484;2023-09-19T03:03:17;93977.03;;;13.16;100.00
39739;BME280;25422;48.286;8.484;2023-09-19T03:05:43;93980.09;;;13.20;100.00
39739;BME280;25422;48.286;8.484;2023-09-19T03:08:13;93982.53;;;13.22;100.00
39739;BME280;25422;48.286;8.484;2023-09-19T03:10:40;93983.72;;;13.19;100.00
39739;BME280;25422;48.286;8.484;2023-09-19T03:13:06;93992.25;;;13.21;100.00
39739;BME280;25422;48.286;8.484;2023-09-19T03:15:35;93994.47;;;13.24;100.00
39739;BME280;25422;48.286;8.484;2023-09-19T03:18:04;93999.53;;;13.26;100.00
39739;BME280;25422;48.286;8.484;2023-09-19T03:20:29;94001.78;;;13.29;100.00
39739;BME280;25422;48.286;8.484;2023-09-19T03:22:56;94003.59;;;13.28;100.00
39739;BME280;25422;48.286;8.484;2023-09-19T03:25:22;93999.72;;;13.24;100.00
39739;BME280;25422;48.286;8.484;2023-09-19T03:27:49;93994.66;;;13.23;100.00
39739;BME280;25422;48.286;8.484;2023-09-19T03:30:15;93990.59;;;13.20;100.00
39739;BME280;25422;48.286;8.484;2023-09-19T03:32:46;93990.34;;;13.15;100.00
39739;BME280;25422;48.286;8.484;2023-09-19T03:35:12;93992.97;;;13.15;100.00
39739;BME280;25422;48.286;8.484;2023-09-19T03:37:40;93992.72;;;13.10;100.00
39739;BME280;25422;48.286;8.484;2023-09-19T03:40:08;94000.00;;;13.08;100.00
39739;BME280;25422;48.286;8.484;2023-09-19T03:42:38;93997.00;;;13.11;100.00
39739;BME280;25422;48.286;8.484;2023-09-19T03:45:04;93997.44;;;13.14;100.00
39739;BME280;25422;48.286;8.484;2023-09-19T03:47:31;94002.69;;;13.14;100.00
39739;BME280;25422;48.286;8.484;2023-09-19T03:49:59;94000.22;;;13.13;100.00
39739;BME280;25422;48.286;8.484;2023-09-19T03:52:24;93992.13;;;13.08;100.00
39739;BME280;25422;48.286;8.484;2023-09-19T03:54:50;93992.94;;;13.08;100.00
39739;BME280;25422;48.286;8.484;2023-09-19T03:57:16;93987.41;;;13.03;100.00
39739;BME280;25422;48.286;8.484;2023-09-19T03:59:46;93982.09;;;12.96;100.00
39739;BME280;25422;48.286;8.484;2023-09-19T04:02:11;93980.06;;;12.92;100.00
39739;BME280;25422;48.286;8.484;2023-09-19T04:04:48;93978.63;;;12.89;100.00
39739;BME280;25422;48.286;8.484;2023-09-19T04:07:14;93974.56;;;12.87;100.00
39739;BME280;25422;48.286;8.484;2023-09-19T04:09:40;93985.19;;;12.78;100.00
39739;BME280;25422;48.286;8.484;2023-09-19T04:12:07;93980.94;;;12.77;100.00
39739;BME280;25422;48.286;8.484;2023-09-19T04:14:34;93988.00;;;12.77;100.00
39739;BME280;25422;48.286;8.484;2023-09-19T04:17:04;93988.00;;;12.77;100.00
39739;BME280;25422;48.286;8.484;2023-09-19T04:19:31;93992.69;;;12.81;100.00
39739;BME280;25422;48.286;8.484;2023-09-19T04:21:56;94001.00;;;12.85;100.00
39739;BME280;25422;48.286;8.484;2023-09-19T04:24:22;93995.75;;;12.85;100.00
39739;BME280;25422;48.286;8.484;2023-09-19T04:26:47;93998.56;;;12.84;100.00
39739;BME280;25422;48.286;8.484;2023-09-19T04:29:13;93992.25;;;12.78;100.00
39739;BME280;25422;48.286;8.484;2023-09-19T04:31:39;93992.81;;;12.73;100.00
39739;BME280;25422;48.286;8.484;2023-09-19T04:34:05;93985.31;;;12.70;100.00
39739;BME280;25422;48.286;8.484;2023-09-19T04:36:31;93988.66;;;12.64;100.00
39739;BME280;25422;48.286;8.484;2023-09-19T04:38:56;93996.31;;;12.59;100.00
39739;BME280;25422;48.286;8.484;2023-09-19T04:41:22;94000.47;;;12.53;100.00
39739;BME280;25422;48.286;8.484;2023-09-19T04:43:47;94005.72;;;12.53;100.00
39739;BME280;25422;48.286;8.484;2023-09-19T04:46:14;94008.53;;;12.52;100.00
39739;BME280;25422;48.286;8.484;2023-09-19T04:48:40;94010.97;;;12.53;100.00
39739;BME280;25422;48.286;8.484;2023-09-19T04:51:06;94016.06;;;12.55;100.00
39739;BME280;25422;48.286;8.484;2023-09-19T04:53:32;94019.47;;;12.55;100.00
39739;BME280;25422;48.286;8.484;2023-09-19T04:55:57;94019.94;;;12.59;100.00
39739;BME280;25422;48.286;8.484;2023-09-19T04:58:23;94026.00;;;12.59;100.00
39739;BME280;25422;48.286;8.484;2023-09-19T05:00:48;94027.63;;;12.60;100.00
39739;BME280;25422;48.286;8.484;2023-09-19T05:03:16;94027.84;;;12.65;100.00
39739;BME280;25422;48.286;8.484;2023-09-19T05:05:42;94032.38;;;12.72;100.00
39739;BME280;25422;48.286;8.484;2023-09-19T05:08:08;94031.38;;;12.73;100.00
39739;BME280;25422;48.286;8.484;2023-09-19T05:10:35;94037.69;;;12.78;100.00
39739;BME280;25422;48.286;8.484;2023-09-19T05:13:04;94038.94;;;12.82;100.00
39739;BME280;25422;48.286;8.484;2023-09-19T05:15:30;94033.69;;;12.82;100.00
39739;BME280;25422;48.286;8.484;2023-09-19T05:17:56;94043.81;;;12.86;100.00
39739;BME280;25422;48.286;8.484;2023-09-19T05:20:21;94048.06;;;12.87;100.00
39739;BME280;25422;48.286;8.484;2023-09-19T05:23:12;94055.56;;;12.90;100.00
39739;BME280;25422;48.286;8.484;2023-09-19T05:25:39;94058.44;;;12.95;100.00
39739;BME280;25422;48.286;8.484;2023-09-19T05:28:05;94056.28;;;12.98;100.00
39739;BME280;25422;48.286;8.484;2023-09-19T05:30:32;94058.31;;;13.03;100.00
39739;BME280;25422;48.286;8.484;2023-09-19T05:32:58;94067.66;;;13.06;100.00
39739;BME280;25422;48.286;8.484;2023-09-19T05:35:24;94068.09;;;13.09;100.00
39739;BME280;25422;48.286;8.484;2023-09-19T05:37:51;94076.59;;;13.11;100.00
39739;BME280;25422;48.286;8.484;2023-09-19T05:40:19;94076.38;;;13.13;100.00
39739;BME280;25422;48.286;8.484;2023-09-19T05:42:45;94078.66;;;13.16;100.00
39739;BME280;25422;48.286;8.484;2023-09-19T05:45:11;94081.72;;;13.20;100.00
39739;BME280;25422;48.286;8.484;2023-09-19T05:47:40;94088.59;;;13.21;100.00
39739;BME280;25422;48.286;8.484;2023-09-19T05:50:09;94084.72;;;13.16;100.00
39739;BME280;25422;48.286;8.484;2023-09-19T05:52:36;94091.88;;;13.23;100.00
39739;BME280;25422;48.286;8.484;2023-09-19T05:55:07;94094.09;;;13.26;100.00
39739;BME280;25422;48.286;8.484;2023-09-19T05:57:33;94099.81;;;13.29;100.00
39739;BME280;25422;48.286;8.484;2023-09-19T05:59:59;94092.81;;;13.37;100.00
39739;BME280;25422;48.286;8.484;2023-09-19T06:02:24;94094.78;;;13.35;100.00
39739;BME280;25422;48.286;8.484;2023-09-19T06:04:54;94085.66;;;13.30;100.00
39739;BME280;25422;48.286;8.484;2023-09-19T06:07:21;94090.72;;;13.32;100.00
39739;BME280;25422;48.286;8.484;2023-09-19T06:09:48;94091.53;;;13.32;100.00
39739;BME280;25422;48.286;8.484;2023-09-19T06:12:14;94096.59;;;13.34;100.00
39739;BME280;25422;48.286;8.484;2023-09-19T06:14:40;94093.44;;;13.39;100.00
39739;BME280;25422;48.286;8.484;2023-09-19T06:17:06;94098.34;;;13.42;100.00
39739;BME280;25422;48.286;8.484;2023-09-19T06:19:31;94098.69;;;13.39;100.00
39739;BME280;25422;48.286;8.484;2023-09-19T06:21:58;94100.13;;;13.41;100.00
39739;BME280;25422;48.286;8.484;2023-09-19T06:24:24;94110.13;;;13.31;100.00
39739;BME280;25422;48.286;8.484;2023-09-19T06:26:51;94110.72;;;13.11;100.00
39739;BME280;25422;48.286;8.484;2023-09-19T06:29:17;94109.06;;;13.04;100.00
39739;BME280;25422;48.286;8.484;2023-09-19T06:31:43;94118.03;;;12.94;100.00
39739;BME280;25422;48.286;8.484;2023-09-19T06:34:10;94112.72;;;12.88;100.00
39739;BME280;25422;48.286;8.484;2023-09-19T06:36:35;94117.13;;;12.87;100.00
39739;BME280;25422;48.286;8.484;2023-09-19T06:39:00;94120.59;;;12.88;100.00
39739;BME280;25422;48.286;8.484;2023-09-19T06:41:26;94121.22;;;12.90;100.00
39739;BME280;25422;48.286;8.484;2023-09-19T06:43:51;94124.94;;;12.95;100.00
39739;BME280;25422;48.286;8.484;2023-09-19T06:46:18;94131.59;;;12.98;100.00
39739;BME280;25422;48.286;8.484;2023-09-19T06:48:44;94125.28;;;12.92;100.00
39739;BME280;25422;48.286;8.484;2023-09-19T06:51:10;94126.84;;;12.87;100.00
39739;BME280;25422;48.286;8.484;2023-09-19T06:53:35;94135.69;;;12.86;100.00
39739;BME280;25422;48.286;8.484;2023-09-19T06:56:02;94139.84;;;12.95;100.00
39739;BME280;25422;48.286;8.484;2023-09-19T06:58:27;94129.53;;;12.93;100.00
39739;BME280;25422;48.286;8.484;2023-09-19T07:00:53;94143.47;;;12.94;100.00
39739;BME280;25422;48.286;8.484;2023-09-19T07:03:19;94142.56;;;13.02;100.00
39739;BME280;25422;48.286;8.484;2023-09-19T07:05:47;94150.00;;;13.20;100.00
39739;BME280;25422;48.286;8.484;2023-09-19T07:08:14;94144.63;;;13.28;100.00
39739;BME280;25422;48.286;8.484;2023-09-19T07:10:41;94147.53;;;13.33;100.00
39739;BME280;25422;48.286;8.484;2023-09-19T07:13:08;94149.72;;;13.29;100.00
39739;BME280;25422;48.286;8.484;2023-09-19T07:15:36;94146.13;;;13.15;100.00
39739;BME280;25422;48.286;8.484;2023-09-19T07:18:05;94153.72;;;13.25;100.00
39739;BME280;25422;48.286;8.484;2023-09-19T07:20:31;94154.91;;;13.23;100.00
39739;BME280;25422;48.286;8.484;2023-09-19T07:22:58;94159.75;;;13.41;100.00
39739;BME280;25422;48.286;8.484;2023-09-19T07:25:30;94152.81;;;13.55;100.00
39739;BME280;25422;48.286;8.484;2023-09-19T07:27:56;94155.19;;;13.71;100.00
39739;BME280;25422;48.286;8.484;2023-09-19T07:30:25;94153.53;;;13.92;100.00
39739;BME280;25422;48.286;8.484;2023-09-19T07:32:51;94154.66;;;14.04;100.00
39739;BME280;25422;48.286;8.484;2023-09-19T07:35:17;94155.88;;;14.08;100.00
39739;BME280;25422;48.286;8.484;2023-09-19T07:37:46;94163.00;;;14.14;100.00
39739;BME280;25422;48.286;8.484;2023-09-19T07:40:18;94170.56;;;13.96;100.00
39739;BME280;25422;48.286;8.484;2023-09-19T07:42:44;94177.06;;;14.00;100.00
39739;BME280;25422;48.286;8.484;2023-09-19T07:45:12;94174.00;;;13.96;100.00
39739;BME280;25422;48.286;8.484;2023-09-19T07:47:49;94162.59;;;14.11;100.00
39739;BME280;25422;48.286;8.484;2023-09-19T07:50:19;94169.44;;;14.69;100.00
39739;BME280;25422;48.286;8.484;2023-09-19T07:52:49;94167.59;;;15.17;100.00
39739;BME280;25422;48.286;8.484;2023-09-19T07:55:18;94168.28;;;15.40;100.00
39739;BME280;25422;48.286;8.484;2023-09-19T07:57:45;94161.00;;;16.49;100.00
39739;BME280;25422;48.286;8.484;2023-09-19T08:00:12;94164.81;;;17.32;100.00
39739;BME280;25422;48.286;8.484;2023-09-19T08:02:41;94163.88;;;19.33;100.00
39739;BME280;25422;48.286;8.484;2023-09-19T08:05:08;94160.78;;;19.36;100.00
39739;BME280;25422;48.286;8.484;2023-09-19T08:07:37;94171.38;;;19.06;100.00
39739;BME280;25422;48.286;8.484;2023-09-19T08:10:04;94177.38;;;19.62;100.00
39739;BME280;25422;48.286;8.484;2023-09-19T08:12:30;94165.25;;;19.66;100.00
39739;BME280;25422;48.286;8.484;2023-09-19T08:14:56;94174.22;;;19.84;100.00
39739;BME280;25422;48.286;8.484;2023-09-19T08:17:21;94174.34;;;19.28;100.00
39739;BME280;25422;48.286;8.484;2023-09-19T08:19:48;94183.75;;;19.73;100.00
39739;BME280;25422;48.286;8.484;2023-09-19T08:22:14;94178.31;;;19.98;100.00
39739;BME280;25422;48.286;8.484;2023-09-19T08:24:42;94191.72;;;20.15;100.00
39739;BME280;25422;48.286;8.484;2023-09-19T08:27:08;94193.53;;;19.12;100.00
39739;BME280;25422;48.286;8.484;2023-09-19T08:29:35;94191.16;;;19.03;100.00
39739;BME280;25422;48.286;8.484;2023-09-19T08:32:00;94193.06;;;18.96;100.00
39739;BME280;25422;48.286;8.484;2023-09-19T08:34:26;94186.25;;;19.56;100.00
39739;BME280;25422;48.286;8.484;2023-09-19T08:36:52;94193.97;;;18.65;100.00
39739;BME280;25422;48.286;8.484;2023-09-19T08:39:24;94186.34;;;18.75;100.00
39739;BME280;25422;48.286;8.484;2023-09-19T08:41:57;94197.75;;;18.32;100.00
39739;BME280;25422;48.286;8.484;2023-09-19T08:44:24;94200.22;;;18.27;100.00
39739;BME280;25422;48.286;8.484;2023-09-19T08:46:55;94194.50;;;18.05;100.00
39739;BME280;25422;48.286;8.484;2023-09-19T08:52:41;94209.94;;;17.37;100.00
39739;BME280;25422;48.286;8.484;2023-09-19T08:55:07;94211.72;;;16.98;100.00
39739;BME280;25422;48.286;8.484;2023-09-19T08:57:36;94211.94;;;16.96;100.00
39739;BME280;25422;48.286;8.484;2023-09-19T09:00:07;94214.16;;;16.93;100.00
39739;BME280;25422;48.286;8.484;2023-09-19T09:02:38;94216.78;;;17.06;100.00
39739;BME280;25422;48.286;8.484;2023-09-19T09:05:09;94215.75;;;17.52;100.00
39739;BME280;25422;48.286;8.484;2023-09-19T09:07:39;94218.84;;;17.88;100.00
39739;BME280;25422;48.286;8.484;2023-09-19T09:10:05;94211.44;;;17.19;100.00
39739;BME280;25422;48.286;8.484;2023-09-19T09:12:32;94216.31;;;17.68;100.00
39739;BME280;25422;48.286;8.484;2023-09-19T09:14:58;94215.59;;;17.47;100.00
39739;BME280;25422;48.286;8.484;2023-09-19T09:17:26;94221.53;;;17.81;100.00
39739;BME280;25422;48.286;8.484;2023-09-19T09:19:52;94217.47;;;18.61;100.00
39739;BME280;25422;48.286;8.484;2023-09-19T09:22:18;94219.97;;;19.86;100.00
39739;BME280;25422;48.286;8.484;2023-09-19T09:24:57;94212.34;;;21.15;100.00
39739;BME280;25422;48.286;8.484;2023-09-19T09:27:24;94213.53;;;21.36;100.00
39739;BME280;25422;48.286;8.484;2023-09-19T09:29:50;94210.47;;;22.31;99.20
39739;BME280;25422;48.286;8.484;2023-09-19T09:34:44;94224.09;;;21.71;100.00
39739;BME280;25422;48.286;8.484;2023-09-19T09:37:14;94218.81;;;21.60;100.00
39739;BME280;25422;48.286;8.484;2023-09-19T09:39:51;94223.47;;;22.10;92.11
39739;BME280;25422;48.286;8.484;2023-09-19T09:42:34;94216.44;;;21.75;100.00
39739;BME280;25422;48.286;8.484;2023-09-19T09:45:17;94221.50;;;21.60;100.00
39739;BME280;25422;48.286;8.484;2023-09-19T09:47:43;94216.41;;;21.46;100.00
39739;BME280;25422;48.286;8.484;2023-09-19T09:50:26;94211.25;;;21.16;97.09
39739;BME280;25422;48.286;8.484;2023-09-19T09:52:57;94215.25;;;20.89;100.00
39739;BME280;25422;48.286;8.484;2023-09-19T09:56:09;94220.91;;;20.93;100.00
39739;BME280;25422;48.286;8.484;2023-09-19T09:58:49;94226.28;;;20.27;100.00
39739;BME280;25422;48.286;8.484;2023-09-19T10:01:15;94223.88;;;19.95;100.00
39739;BME280;25422;48.286;8.484;2023-09-19T10:03:42;94220.94;;;19.54;100.00
39739;BME280;25422;48.286;8.484;2023-09-19T10:06:16;94221.38;;;18.77;100.00
39739;BME280;25422;48.286;8.484;2023-09-19T10:08:58;94227.78;;;17.87;100.00
39739;BME280;25422;48.286;8.484;2023-09-19T10:11:42;94222.03;;;17.65;100.00
39739;BME280;25422;48.286;8.484;2023-09-19T10:14:09;94214.63;;;17.42;100.00
39739;BME280;25422;48.286;8.484;2023-09-19T10:16:40;94217.38;;;17.08;100.00
39739;BME280;25422;48.286;8.484;2023-09-19T10:19:09;94213.00;;;16.68;100.00
39739;BME280;25422;48.286;8.484;2023-09-19T10:21:36;94214.03;;;16.61;100.00
39739;BME280;25422;48.286;8.484;2023-09-19T10:24:03;94211.88;;;17.10;100.00
39739;BME280;25422;48.286;8.484;2023-09-19T10:26:30;94209.97;;;18.08;100.00
39739;BME280;25422;48.286;8.484;2023-09-19T10:28:57;94205.00;;;19.54;100.00
39739;BME280;25422;48.286;8.484;2023-09-19T10:31:30;94207.88;;;19.41;100.00
39739;BME280;25422;48.286;8.484;2023-09-19T10:34:02;94198.66;;;19.74;100.00
39739;BME280;25422;48.286;8.484;2023-09-19T10:36:32;94194.84;;;20.36;100.00
39739;BME280;25422;48.286;8.484;2023-09-19T10:39:01;94196.31;;;19.66;100.00
39739;BME280;25422;48.286;8.484;2023-09-19T10:41:30;94200.38;;;19.01;100.00
39739;BME280;25422;48.286;8.484;2023-09-19T10:44:04;94203.88;;;19.81;100.00
39739;BME280;25422;48.286;8.484;2023-09-19T10:46:34;94187.47;;;20.26;100.00
39739;BME280;25422;48.286;8.484;2023-09-19T10:49:01;94197.00;;;20.69;100.00
39739;BME280;25422;48.286;8.484;2023-09-19T10:51:40;94183.72;;;21.34;98.17
39739;BME280;25422;48.286;8.484;2023-09-19T10:54:13;94189.72;;;19.99;100.00
39739;BME280;25422;48.286;8.484;2023-09-19T10:56:47;94189.06;;;20.15;100.00
39739;BME280;25422;48.286;8.484;2023-09-19T10:59:15;94196.50;;;20.49;100.00
39739;BME280;25422;48.286;8.484;2023-09-19T11:01:50;94194.09;;;20.59;96.68
39739;BME280;25422;48.286;8.484;2023-09-19T11:04:26;94185.38;;;20.40;100.00
39739;BME280;25422;48.286;8.484;2023-09-19T11:07:19;94187.53;;;19.96;100.00
39739;BME280;25422;48.286;8.484;2023-09-19T11:09:52;94182.50;;;20.65;97.91
39739;BME280;25422;48.286;8.484;2023-09-19T11:14:54;94192.72;;;19.60;100.00
39739;BME280;25422;48.286;8.484;2023-09-19T11:30:44;94187.69;;;21.48;87.85
39739;BME280;25422;48.286;8.484;2023-09-19T11:33:31;94184.22;;;21.48;83.46
39739;BME280;25422;48.286;8.484;2023-09-19T11:36:10;94187.16;;;21.75;80.54
39739;BME280;25422;48.286;8.484;2023-09-19T11:46:32;94173.47;;;23.07;68.13
39739;BME280;25422;48.286;8.484;2023-09-19T11:49:09;94175.38;;;23.29;63.75
39739;BME280;25422;48.286;8.484;2023-09-19T11:51:42;94170.03;;;22.51;66.83
39739;BME280;25422;48.286;8.484;2023-09-19T11:54:12;94176.38;;;21.99;66.44
39739;BME280;25422;48.286;8.484;2023-09-19T11:56:44;94167.03;;;22.30;63.22
39739;BME280;25422;48.286;8.484;2023-09-19T11:59:11;94160.31;;;23.45;59.60
39739;BME280;25422;48.286;8.484;2023-09-19T12:01:38;94156.63;;;22.46;63.24
39739;BME280;25422;48.286;8.484;2023-09-19T12:04:11;94155.16;;;21.17;66.27
39739;BME280;25422;48.286;8.484;2023-09-19T12:06:37;94159.44;;;21.47;67.20
39739;BME280;25422;48.286;8.484;2023-09-19T12:09:12;94152.25;;;22.05;64.31
39739;BME280;25422;48.286;8.484;2023-09-19T12:11:42;94157.91;;;22.26;62.76
39739;BME280;25422;48.286;8.484;2023-09-19T12:14:09;94156.97;;;22.49;60.45
39739;BME280;25422;48.286;8.484;2023-09-19T12:19:21;94157.66;;;22.62;59.19
39739;BME280;25422;48.286;8.484;2023-09-19T12:21:57;94151.13;;;22.92;61.15
39739;BME280;25422;48.286;8.484;2023-09-19T12:24:24;94144.09;;;23.79;58.63
39739;BME280;25422;48.286;8.484;2023-09-19T12:26:59;94151.38;;;23.56;56.95
39739;BME280;25422;48.286;8.484;2023-09-19T12:29:27;94145.81;;;24.55;53.95
39739;BME280;25422;48.286;8.484;2023-09-19T12:31:54;94146.59;;;24.18;54.73
39739;BME280;25422;48.286;8.484;2023-09-19T12:34:26;94159.09;;;24.07;55.90
39739;BME280;25422;48.286;8.484;2023-09-19T12:37:12;94151.47;;;23.89;53.21
39739;BME280;25422;48.286;8.484;2023-09-19T12:42:08;94141.00;;;24.20;52.50
39739;BME280;25422;48.286;8.484;2023-09-19T12:44:40;94144.66;;;23.81;53.43
39739;BME280;25422;48.286;8.484;2023-09-19T12:47:12;94145.44;;;23.77;53.33
39739;BME280;25422;48.286;8.484;2023-09-19T12:50:06;94138.56;;;23.31;51.68
39739;BME280;25422;48.286;8.484;2023-09-19T12:52:38;94137.38;;;23.44;52.25
39739;BME280;25422;48.286;8.484;2023-09-19T12:55:05;94147.16;;;23.61;53.44
39739;BME280;25422;48.286;8.484;2023-09-19T12:57:33;94135.63;;;23.11;54.62
39739;BME280;25422;48.286;8.484;2023-09-19T13:00:03;94128.00;;;22.97;56.05
39739;BME280;25422;48.286;8.484;2023-09-19T13:02:31;94133.56;;;22.34;53.97
39739;BME280;25422;48.286;8.484;2023-09-19T13:04:58;94130.13;;;22.39;55.25
39739;BME280;25422;48.286;8.484;2023-09-19T13:07:45;94126.22;;;22.64;56.52
39739;BME280;25422;48.286;8.484;2023-09-19T13:10:12;94131.22;;;21.17;57.75
39739;BME280;25422;48.286;8.484;2023-09-19T13:12:41;94129.81;;;20.86;60.70
39739;BME280;25422;48.286;8.484;2023-09-19T13:15:13;94131.94;;;21.13;60.07
39739;BME280;25422;48.286;8.484;2023-09-19T13:17:46;94130.06;;;20.72;62.29
39739;BME280;25422;48.286;8.484;2023-09-19T13:20:26;94124.88;;;20.18;64.49
39739;BME280;25422;48.286;8.484;2023-09-19T13:22:57;94129.59;;;20.64;65.06
39739;BME280;25422;48.286;8.484;2023-09-19T13:25:33;94122.91;;;20.49;68.00
39739;BME280;25422;48.286;8.484;2023-09-19T13:28:00;94124.16;;;19.87;67.77
39739;BME280;25422;48.286;8.484;2023-09-19T13:30:29;94116.63;;;19.84;69.56
39739;BME280;25422;48.286;8.484;2023-09-19T13:33:10;94120.09;;;19.43;71.79
39739;BME280;25422;48.286;8.484;2023-09-19T13:35:38;94125.88;;;19.51;72.38
39739;BME280;25422;48.286;8.484;2023-09-19T13:38:05;94113.25;;;19.77;73.51
39739;BME280;25422;48.286;8.484;2023-09-19T13:40:32;94111.72;;;19.58;71.53
39739;BME280;25422;48.286;8.484;2023-09-19T13:43:03;94109.72;;;19.95;72.42
39739;BME280;25422;48.286;8.484;2023-09-19T13:45:28;94110.31;;;20.33;72.76